aviador You're here:

KAUS Decoded Metar

AUSTIN in TX, USA
Report Time2018-02-18 17:38:00
UTC Time2018-02-18 17:48:30
Flight Rules lifr LIFR
WindCalm
Visibility2414 m
Phenomena:Mist
Clouds:Overcast 003 Hf
Ceiling300 ft
Temp13°C (ISA -1)
Dew Point13°C (100% RH)
QNH1020 hPa
Density Alt400 ft
Elevation545 ft
Report Wrong Elevation
Raw Report
KAUS 181738Z 00000KT 1 1/2SM BR OVC003 13/13 A3012 RMK AO2 SFC VIS
3 T01330133=

Extra information for KAUS:More info

Metar Taf Metar & Taf Last 4 Metars F.Rules Stats Wind Profile Meteogram Temp Stats Airport Information Weather charts Add Link Nearby VenuesMetar ALERT Operation Metar Decoded Social comments

AIRNAV info for KAUS